createdAt,value
2023-04-05T00:00:34.000Z,2
2023-04-05T00:01:50.698Z,1.8
2023-04-05T00:02:48.895Z,1.6
2023-04-05T00:04:47.000Z,1.6
2023-04-05T00:05:21.286Z,1.3
2023-04-05T00:06:55.000Z,1.3
2023-04-05T00:08:11.677Z,1.8
2023-04-05T00:09:27.873Z,1.8
2023-04-05T00:10:44.060Z,1.7
2023-04-05T00:11:59.267Z,1.8
2023-04-05T00:12:57.474Z,1.6
2023-04-05T00:14:31.662Z,1.9
2023-04-05T00:15:29.865Z,1.7
2023-04-05T00:17:04.000Z,1.8
2023-04-05T00:18:02.257Z,2.1
2023-04-05T00:19:36.437Z,1.7
2023-04-05T00:20:52.648Z,1.7
2023-04-05T00:22:08.836Z,2.1
2023-04-05T00:23:07.038Z,2
2023-04-05T00:25:06.000Z,1.7
2023-04-05T00:25:39.429Z,2.3
2023-04-05T00:27:13.627Z,1.7
2023-04-05T00:28:10.836Z,1.9
2023-04-05T00:29:45.000Z,2.3
2023-04-05T00:31:26.000Z,2.1
2023-04-05T00:32:17.412Z,2
2023-04-05T00:33:33.618Z,1.7
2023-04-05T00:34:49.814Z,1.8
2023-04-05T00:35:48.009Z,2
2023-04-05T00:37:22.000Z,2.3
2023-04-05T00:38:20.400Z,2.1
2023-04-05T00:39:54.580Z,2
2023-04-05T00:41:10.783Z,2
2023-04-05T00:42:08.986Z,1.8
2023-04-05T00:43:25.181Z,1.8
2023-04-05T00:44:58.393Z,1.7
2023-04-05T00:46:14.587Z,1.6
2023-04-05T00:47:55.000Z,1.5
2023-04-05T00:48:46.967Z,1.6
2023-04-05T00:49:45.174Z,1.8
2023-04-05T00:51:01.369Z,2
2023-04-05T00:52:35.000Z,2
2023-04-05T00:53:51.745Z,1.6
2023-04-05T00:54:49.956Z,1.9
2023-04-05T00:56:06.151Z,1.9
2023-04-05T00:57:40.333Z,2
2023-04-05T00:58:56.000Z,1.6
2023-04-05T01:00:12.737Z,2.2
2023-04-05T01:01:09.948Z,1.8
2023-04-05T01:02:26.144Z,1.7
2023-04-05T01:03:42.340Z,1.5
2023-04-05T01:05:16.535Z,1.7
2023-04-05T01:06:14.730Z,1.8
2023-04-05T01:07:48.000Z,1.6
2023-04-05T01:08:47.121Z,1.8
2023-04-05T01:10:46.000Z,1.8
2023-04-05T01:11:37.512Z,1.8
2023-04-05T01:12:53.696Z,1.5
2023-04-05T01:13:51.903Z,1.8
2023-04-05T01:15:26.089Z,2.2
2023-04-05T01:16:24.294Z,1.9
2023-04-05T01:17:57.503Z,1.8
2023-04-05T01:18:55.701Z,1.9
2023-04-05T01:20:29.895Z,1.8
2023-04-05T01:21:28.092Z,1.9
2023-04-05T01:23:02.288Z,1.3
2023-04-05T01:24:18.483Z,1.6
2023-04-05T01:25:16.679Z,1.6
2023-04-05T01:26:50.876Z,1.8
2023-04-05T01:28:07.073Z,1.7
2023-04-05T01:29:05.265Z,1.5
2023-04-05T01:30:39.449Z,1.7
2023-04-05T01:31:37.656Z,1.8
2023-04-05T01:33:11.000Z,1.8
2023-04-05T01:34:10.047Z,1.7
2023-04-05T01:35:25.260Z,1.6
2023-04-05T01:36:59.000Z,1.9
2023-04-05T01:38:15.000Z,1.8
2023-04-05T01:39:13.846Z,1.7
2023-04-05T01:40:30.042Z,1.9
2023-04-05T01:42:04.237Z,1.8
2023-04-05T01:43:20.000Z,1.8
2023-04-05T01:44:36.628Z,1.6
2023-04-05T01:45:52.819Z,1.4
2023-04-05T01:46:51.019Z,1.5
2023-04-05T01:48:50.000Z,1.8
2023-04-05T01:49:41.000Z,2.3
2023-04-05T01:50:57.595Z,1.6
2023-04-05T01:51:54.817Z,1.6
2023-04-05T01:53:29.000Z,1.7
2023-04-05T01:54:45.198Z,1.7
2023-04-05T01:55:43.404Z,1.6
2023-04-05T01:56:59.599Z,1.5
2023-04-05T01:58:33.786Z,1.5
2023-04-05T01:59:31.991Z,1.6
2023-04-05T02:01:06.000Z,1.4
2023-04-05T02:02:22.000Z,1.6
2023-04-05T02:03:38.578Z,1.6
2023-04-05T02:04:36.773Z,1.5
2023-04-05T02:06:10.964Z,1.6
2023-04-05T02:07:27.154Z,1.3
2023-04-05T02:08:43.000Z,1.7
2023-04-05T02:09:41.679Z,1.6
2023-04-05T02:11:15.875Z,1.7
2023-04-05T02:12:32.061Z,1.5
2023-04-05T02:13:48.266Z,1.8
2023-04-05T02:15:04.000Z,1.7
2023-04-05T02:16:20.000Z,1.7
2023-04-05T02:17:36.843Z,1.8
2023-04-05T02:18:53.042Z,1.7
2023-04-05T02:19:51.243Z,1.4
2023-04-05T02:21:25.439Z,1.8
2023-04-05T02:23:06.000Z,1.6
2023-04-05T02:23:57.818Z,2
2023-04-05T02:24:55.042Z,2
2023-04-05T02:26:29.000Z,2
2023-04-05T02:27:45.000Z,1.9
2023-04-05T02:29:01.621Z,2.1
2023-04-05T02:29:59.824Z,2.1
2023-04-05T02:31:34.000Z,1.7
2023-04-05T02:32:50.210Z,1.9
2023-04-05T02:33:48.411Z,2
2023-04-05T02:35:22.000Z,1.7
2023-04-05T02:36:38.800Z,1.8
2023-04-05T02:37:36.997Z,2.1
2023-04-05T02:39:11.193Z,2
2023-04-05T02:40:27.388Z,2.1
2023-04-05T02:41:43.584Z,2.5
2023-04-05T02:42:40.793Z,2.3
2023-04-05T02:43:56.989Z,2.3
2023-04-05T02:45:13.184Z,2.2
2023-04-05T02:46:47.000Z,2
2023-04-05T02:48:03.569Z,1.8
2023-04-05T02:49:01.772Z,2.4
2023-04-05T02:50:17.967Z,1.7
2023-04-05T02:51:52.000Z,2
2023-04-05T02:53:08.000Z,2
2023-04-05T02:54:24.000Z,2.2
2023-04-05T02:55:40.734Z,2.1
2023-04-05T02:56:56.000Z,1.5
2023-04-05T02:58:13.123Z,2
2023-04-05T02:59:54.000Z,1.7
2023-04-05T03:00:44.540Z,2.2
2023-04-05T03:01:59.762Z,2
2023-04-05T03:02:57.957Z,2.2
2023-04-05T03:04:32.000Z,1.7
2023-04-05T03:05:48.348Z,1.8
2023-04-05T03:07:29.000Z,1.9
2023-04-05T03:08:20.722Z,1.7
2023-04-05T03:09:36.935Z,1.7
2023-04-05T03:10:35.130Z,1.9
2023-04-05T03:12:09.000Z,1.6
2023-04-05T03:13:25.518Z,1.5
2023-04-05T03:14:41.701Z,1.9
2023-04-05T03:15:39.913Z,1.8
2023-04-05T03:17:14.000Z,1.6
2023-04-05T03:18:30.000Z,2
2023-04-05T03:20:11.000Z,1.7
2023-04-05T03:20:44.695Z,1.7
2023-04-05T03:22:17.897Z,1.4
2023-04-05T03:23:16.103Z,1.8
2023-04-05T03:24:50.000Z,1.7
2023-04-05T03:26:06.488Z,1.7
2023-04-05T03:27:04.690Z,2
2023-04-05T03:28:38.873Z,2.1
2023-04-05T03:29:55.081Z,2
2023-04-05T03:31:11.000Z,1.7
2023-04-05T03:32:27.000Z,1.9
2023-04-05T03:33:43.651Z,1.7
2023-04-05T03:34:59.863Z,1.8
2023-04-05T03:36:16.046Z,1.6
2023-04-05T03:37:32.000Z,1.9
2023-04-05T03:38:30.449Z,1.9
2023-04-05T03:40:03.660Z,1.7
2023-04-05T03:41:01.858Z,1.9
2023-04-05T03:42:36.047Z,2.2
2023-04-05T03:43:52.000Z,2
2023-04-05T03:45:08.446Z,2.1
2023-04-05T03:46:06.641Z,2.6
2023-04-05T03:47:40.000Z,1.6
2023-04-05T03:48:57.029Z,2.3
2023-04-05T03:50:13.227Z,2
2023-04-05T03:51:11.424Z,1.8
2023-04-05T03:52:45.617Z,2.2
2023-04-05T03:53:43.816Z,1.6
2023-04-05T03:55:18.013Z,1.9
2023-04-05T03:56:34.208Z,2
2023-04-05T03:57:50.393Z,2
2023-04-05T03:58:47.616Z,1.9
2023-04-05T04:00:21.802Z,1.9
2023-04-05T04:01:20.008Z,1.8
2023-04-05T04:02:54.000Z,2
2023-04-05T04:03:52.399Z,1.7
2023-04-05T04:05:08.594Z,1.9
2023-04-05T04:06:24.789Z,1.4
2023-04-05T04:07:58.000Z,2.1
2023-04-05T04:09:15.181Z,1.8
2023-04-05T04:10:31.000Z,1.8
2023-04-05T04:11:47.563Z,1.9
2023-04-05T04:13:03.000Z,2
2023-04-05T04:14:01.963Z,2
2023-04-05T04:15:18.159Z,2.1
2023-04-05T04:16:34.356Z,1.7
2023-04-05T04:18:07.562Z,2.2
2023-04-05T04:19:05.764Z,2.3
2023-04-05T04:20:21.960Z,2.3
2023-04-05T04:21:56.000Z,2.3
2023-04-05T04:23:12.342Z,2.2
2023-04-05T04:24:10.546Z,2
2023-04-05T04:25:44.740Z,2
2023-04-05T04:26:42.938Z,2.2
2023-04-05T04:28:17.000Z,2.8
2023-04-05T04:29:15.331Z,2.6
2023-04-05T04:30:31.527Z,2.5
2023-04-05T04:32:05.000Z,2.4
2023-04-05T04:33:21.000Z,2.1
2023-04-05T04:34:38.000Z,2
2023-04-05T04:35:36.308Z,2.6
2023-04-05T04:36:52.503Z,2.5
2023-04-05T04:38:26.000Z,2.5
2023-04-05T04:39:24.897Z,2.1
2023-04-05T04:40:58.109Z,2.1
2023-04-05T04:42:14.305Z,2.7
2023-04-05T04:43:30.000Z,2.6
2023-04-05T04:44:46.680Z,1.9
2023-04-05T04:46:02.000Z,2.6
2023-04-05T04:47:19.000Z,2.5
2023-04-05T04:48:35.282Z,2.4
2023-04-05T04:49:51.460Z,2.5
2023-04-05T04:51:07.673Z,2.1
2023-04-05T04:52:05.869Z,2.3
2023-04-05T04:53:40.053Z,2.1
2023-04-05T04:54:38.260Z,2.1
2023-04-05T04:56:12.000Z,2.1
2023-04-05T04:57:10.652Z,2
2023-04-05T04:58:26.848Z,1.9
2023-04-05T05:00:01.000Z,2.1
2023-04-05T05:01:17.232Z,2
2023-04-05T05:02:15.435Z,2.2
2023-04-05T05:03:48.000Z,2.1
2023-04-05T05:05:04.000Z,2.3
2023-04-05T05:06:21.037Z,1.7
2023-04-05T05:07:19.235Z,1.9
2023-04-05T05:08:53.431Z,2
2023-04-05T05:10:09.614Z,2.1
2023-04-05T05:11:25.000Z,1.7
2023-04-05T05:12:42.000Z,1.8
2023-04-05T05:13:58.212Z,1.9
2023-04-05T05:14:56.409Z,1.9
2023-04-05T05:16:55.000Z,1.7
2023-04-05T05:17:28.800Z,1.9
2023-04-05T05:19:03.000Z,2.2
2023-04-05T05:20:44.000Z,1.7
2023-04-05T05:22:00.000Z,1.8
2023-04-05T05:22:33.582Z,2
2023-04-05T05:24:07.000Z,1.9
2023-04-05T05:25:23.973Z,1.8
2023-04-05T05:26:40.000Z,2.1
2023-04-05T05:27:56.349Z,2.1
2023-04-05T05:29:11.570Z,1.6
2023-04-05T05:30:27.764Z,1.9
2023-04-05T05:31:43.968Z,1.9
2023-04-05T05:32:42.165Z,1.7
2023-04-05T05:34:16.000Z,1.4
2023-04-05T05:35:32.553Z,1.9
2023-04-05T05:36:48.000Z,1.8
2023-04-05T05:38:04.000Z,1.5
2023-04-05T05:39:21.000Z,2
2023-04-05T05:40:37.335Z,1.9
2023-04-05T05:41:53.000Z,1.7
2023-04-05T05:42:51.731Z,1.8
2023-04-05T05:44:25.923Z,1.6
2023-04-05T05:45:41.000Z,1.6
2023-04-05T05:46:57.339Z,1.7
2023-04-05T05:48:13.516Z,1.4
2023-04-05T05:49:29.000Z,1.8
2023-04-05T05:50:45.000Z,1.5
2023-04-05T05:52:02.000Z,1.6
2023-04-05T05:53:00.316Z,1.6
2023-04-05T05:54:34.514Z,1.5
2023-04-05T05:55:32.710Z,1.4
2023-04-05T05:57:06.000Z,1.5
2023-04-05T05:58:05.102Z,1.8
2023-04-05T05:59:39.283Z,1.4
2023-04-05T06:00:37.495Z,1.6
2023-04-05T06:02:11.678Z,1.8
2023-04-05T06:03:26.903Z,1.5
2023-04-05T06:04:43.000Z,1.9
2023-04-05T06:05:41.297Z,1.7
2023-04-05T06:07:15.481Z,2
2023-04-05T06:08:13.689Z,1.4
2023-04-05T06:09:47.886Z,1.5
2023-04-05T06:11:04.081Z,1.6
2023-04-05T06:12:20.000Z,1.5
2023-04-05T06:13:18.473Z,1.9
2023-04-05T06:14:52.670Z,1.6
2023-04-05T06:16:08.000Z,1.7
2023-04-05T06:17:25.000Z,1.7
2023-04-05T06:18:41.244Z,1.4
2023-04-05T06:19:56.000Z,1.7
2023-04-05T06:21:12.651Z,1.6
2023-04-05T06:22:28.860Z,1.6
2023-04-05T06:23:45.062Z,1.6
2023-04-05T06:25:01.247Z,1.6
2023-04-05T06:25:59.449Z,1.5
2023-04-05T06:27:33.000Z,2
2023-04-05T06:28:49.000Z,1.6
2023-04-05T06:30:06.000Z,1.9
2023-04-05T06:31:04.233Z,1.5
2023-04-05T06:32:38.415Z,1.5
2023-04-05T06:33:36.624Z,2.3
2023-04-05T06:35:10.820Z,1.5
2023-04-05T06:36:27.014Z,1.7
2023-04-05T06:37:43.205Z,1.8
2023-04-05T06:38:40.418Z,1.5
2023-04-05T06:40:14.000Z,1.7
2023-04-05T06:41:30.000Z,1.8
2023-04-05T06:42:47.000Z,1.5
2023-04-05T06:43:45.194Z,1.9
2023-04-05T06:45:01.387Z,1.5
2023-04-05T06:46:17.581Z,1.6
2023-04-05T06:47:51.770Z,1.9
2023-04-05T06:49:07.000Z,1.8
2023-04-05T06:50:24.000Z,1.5
2023-04-05T06:52:05.000Z,1.9
2023-04-05T06:52:38.550Z,2.6
2023-04-05T06:54:12.744Z,1.9
2023-04-05T06:55:28.000Z,2.3
2023-04-05T06:56:27.253Z,1.9
2023-04-05T06:58:01.000Z,1.8
2023-04-05T06:58:59.641Z,2.3
2023-04-05T07:00:15.835Z,2
2023-04-05T07:01:32.029Z,2.1
2023-04-05T07:03:06.217Z,1.8
2023-04-05T07:04:04.416Z,1.9
2023-04-05T07:05:38.000Z,1.4
2023-04-05T07:06:54.000Z,1.6
2023-04-05T07:08:10.990Z,1.9
2023-04-05T07:09:09.188Z,2.2
2023-04-05T07:10:43.000Z,1.6
2023-04-05T07:11:41.576Z,1.7
2023-04-05T07:13:15.000Z,1.5
2023-04-05T07:14:14.083Z,2.2
2023-04-05T07:15:30.276Z,1.8
2023-04-05T07:16:46.469Z,2
2023-04-05T07:18:19.684Z,2
2023-04-05T07:19:35.000Z,1.8
2023-04-05T07:20:52.000Z,2.2
2023-04-05T07:21:50.264Z,2.1
2023-04-05T07:23:06.457Z,2.1
2023-04-05T07:24:40.640Z,2.3
2023-04-05T07:25:56.000Z,1.8
2023-04-05T07:27:13.029Z,2
2023-04-05T07:28:29.000Z,1.9
2023-04-05T07:29:27.423Z,1.9
2023-04-05T07:31:01.615Z,1.5
2023-04-05T07:32:17.000Z,2
2023-04-05T07:33:33.988Z,2.4
2023-04-05T07:34:32.196Z,2
2023-04-05T07:36:05.399Z,2.2
2023-04-05T07:37:03.598Z,2.2
2023-04-05T07:38:37.000Z,2.4
2023-04-05T07:39:35.984Z,1.9
2023-04-05T07:40:52.177Z,2
2023-04-05T07:42:08.371Z,1.6
2023-04-05T07:43:42.563Z,2.1
2023-04-05T07:44:58.000Z,1.9
2023-04-05T07:46:14.000Z,2.2
2023-04-05T07:47:13.143Z,2
2023-04-05T07:48:29.336Z,2
2023-04-05T07:50:03.522Z,2.3
2023-04-05T07:51:19.000Z,2.4
2023-04-05T07:52:17.915Z,2.3
2023-04-05T07:53:52.000Z,2.2
2023-04-05T07:55:08.000Z,1.9
2023-04-05T07:56:24.000Z,1.9
2023-04-05T07:57:40.000Z,1.9
2023-04-05T07:58:56.000Z,2.1
2023-04-05T08:00:13.077Z,2.3
2023-04-05T08:01:28.269Z,1.9
2023-04-05T08:02:26.475Z,2
2023-04-05T08:03:42.668Z,1.9
2023-04-05T08:04:58.861Z,1.9
2023-04-05T08:06:33.000Z,2
2023-04-05T08:07:31.248Z,1.8
2023-04-05T08:09:05.440Z,1.9
2023-04-05T08:10:21.000Z,2
2023-04-05T08:11:37.000Z,1.9
2023-04-05T08:12:36.020Z,1.8
2023-04-05T08:14:10.000Z,2.2
2023-04-05T08:15:26.398Z,1.8
2023-04-05T08:16:42.600Z,1.8
2023-04-05T08:17:40.793Z,1.8
2023-04-05T08:19:15.097Z,1.7
2023-04-05T08:20:13.300Z,2
2023-04-05T08:21:47.000Z,1.8
2023-04-05T08:23:03.000Z,1.9
2023-04-05T08:24:19.876Z,1.9
2023-04-05T08:25:36.058Z,2
2023-04-05T08:26:52.000Z,1.9
2023-04-05T08:28:08.444Z,1.8
2023-04-05T08:29:24.000Z,1.7
2023-04-05T08:30:40.000Z,1.9
2023-04-05T08:32:21.000Z,2
2023-04-05T08:32:55.229Z,1.8
2023-04-05T08:34:29.000Z,2.2
2023-04-05T08:35:45.000Z,2.3
2023-04-05T08:37:01.000Z,2.1
2023-04-05T08:38:18.000Z,2.2
2023-04-05T08:39:34.185Z,1.8
2023-04-05T08:40:49.394Z,1.8
2023-04-05T08:42:05.000Z,2.3
2023-04-05T08:43:21.784Z,1.8
2023-04-05T08:44:37.983Z,1.9
2023-04-05T08:45:54.179Z,1.8
2023-04-05T08:47:10.000Z,1.8
2023-04-05T08:48:26.000Z,2
2023-04-05T08:49:24.757Z,1.7
2023-04-05T08:50:40.950Z,1.9
2023-04-05T08:52:15.000Z,2
2023-04-05T08:53:31.330Z,1.8
2023-04-05T08:54:47.000Z,2.1
2023-04-05T08:56:03.722Z,1.8
2023-04-05T08:57:19.901Z,1.8
2023-04-05T08:58:18.109Z,2
2023-04-05T08:59:51.000Z,2
2023-04-05T09:01:07.000Z,1.7
2023-04-05T09:02:23.705Z,2.3
2023-04-05T09:03:39.886Z,2.3
2023-04-05T09:04:38.091Z,1.7
2023-04-05T09:05:54.285Z,1.7
2023-04-05T09:07:28.000Z,1.9
2023-04-05T09:08:26.671Z,1.9
2023-04-05T09:10:00.864Z,1.7
2023-04-05T09:11:17.053Z,1.7
2023-04-05T09:12:15.251Z,2.1
2023-04-05T09:13:49.444Z,1.7
2023-04-05T09:15:05.000Z,1.6
2023-04-05T09:16:03.830Z,2
2023-04-05T09:17:37.000Z,1.8
2023-04-05T09:18:53.233Z,1.9
2023-04-05T09:20:09.423Z,1.9
2023-04-05T09:21:07.619Z,2.2
2023-04-05T09:22:41.000Z,2
2023-04-05T09:23:57.993Z,1.8
2023-04-05T09:25:14.000Z,1.7
2023-04-05T09:26:30.393Z,1.9
2023-04-05T09:27:46.584Z,1.7
2023-04-05T09:28:44.779Z,2.1
2023-04-05T09:30:18.000Z,1.7
2023-04-05T09:31:35.152Z,1.8
2023-04-05T09:32:51.000Z,2.1
2023-04-05T09:34:07.000Z,2
2023-04-05T09:35:23.735Z,1.8
2023-04-05T09:36:21.940Z,2
2023-04-05T09:37:55.000Z,1.6
2023-04-05T09:39:11.000Z,1.7
2023-04-05T09:40:09.535Z,2.1
2023-04-05T09:41:25.729Z,1.6
2023-04-05T09:42:59.000Z,1.7
2023-04-05T09:43:58.115Z,2
2023-04-05T09:45:32.308Z,2.2
2023-04-05T09:46:48.495Z,2
2023-04-05T09:48:04.688Z,1.8
2023-04-05T09:49:02.888Z,2.1
2023-04-05T09:50:37.068Z,2
2023-04-05T09:51:53.000Z,1.5
2023-04-05T09:53:09.000Z,1.6
2023-04-05T09:54:07.662Z,1.7
2023-04-05T09:55:41.859Z,1.8
2023-04-05T09:56:40.048Z,1.9
2023-04-05T09:58:14.000Z,1.6
2023-04-05T09:59:30.421Z,1.9
2023-04-05T10:00:45.645Z,1.6
2023-04-05T10:01:43.838Z,1.6
2023-04-05T10:03:18.031Z,1.9
2023-04-05T10:04:34.000Z,1.5
2023-04-05T10:05:50.418Z,1.7
2023-04-05T10:07:06.000Z,1.7
2023-04-05T10:08:22.805Z,1.8
2023-04-05T10:09:20.998Z,1.5
2023-04-05T10:10:55.000Z,1.7
2023-04-05T10:12:11.379Z,1.6
2023-04-05T10:13:27.000Z,1.7
2023-04-05T10:14:43.771Z,1.8
2023-04-05T10:15:59.000Z,1.9
2023-04-05T10:17:16.000Z,1.7
2023-04-05T10:18:32.352Z,2
2023-04-05T10:19:30.545Z,1.8
2023-04-05T10:20:45.755Z,1.7
2023-04-05T10:22:01.948Z,1.9
2023-04-05T10:23:36.141Z,1.8
2023-04-05T10:24:34.334Z,1.9
2023-04-05T10:25:50.527Z,1.8
2023-04-05T10:27:06.721Z,1.6
2023-04-05T10:28:40.918Z,1.7
2023-04-05T10:29:57.107Z,1.8
2023-04-05T10:31:13.300Z,1.9
2023-04-05T10:32:29.494Z,1.8
2023-04-05T10:33:45.677Z,1.9
2023-04-05T10:35:01.871Z,1.6
2023-04-05T10:36:00.073Z,1.6
2023-04-05T10:37:34.258Z,1.6
2023-04-05T10:38:50.000Z,1.8
2023-04-05T10:40:05.666Z,1.8
2023-04-05T10:41:46.000Z,1.8
2023-04-05T10:42:38.000Z,1.7
2023-04-05T10:43:54.255Z,1.6
2023-04-05T10:44:52.443Z,1.6
2023-04-05T10:46:26.636Z,1.4
2023-04-05T10:47:42.817Z,2
2023-04-05T10:48:59.000Z,2.1
2023-04-05T10:50:15.000Z,1.5
2023-04-05T10:51:31.000Z,1.5
2023-04-05T10:52:29.603Z,2
2023-04-05T10:54:03.000Z,1.9
2023-04-05T10:55:19.000Z,1.8
2023-04-05T10:56:36.180Z,1.6
2023-04-05T10:57:33.391Z,1.6
2023-04-05T10:59:07.578Z,1.9
2023-04-05T11:00:05.778Z,1.9
2023-04-05T11:01:39.971Z,2.1
2023-04-05T11:02:38.164Z,1.8
2023-04-05T11:04:12.000Z,2.1
2023-04-05T11:05:10.550Z,1.8
2023-04-05T11:06:44.730Z,1.8
2023-04-05T11:08:00.000Z,1.4
2023-04-05T11:09:17.000Z,1.4
2023-04-05T11:10:15.323Z,2
2023-04-05T11:11:49.000Z,1.9
2023-04-05T11:13:05.696Z,1.6
2023-04-05T11:14:21.897Z,1.6
2023-04-05T11:15:37.100Z,1.9
2023-04-05T11:16:53.000Z,1.8
2023-04-05T11:18:09.486Z,1.7
2023-04-05T11:19:25.683Z,1.3
2023-04-05T11:20:41.000Z,1.6
2023-04-05T11:21:58.074Z,1.5
2023-04-05T11:22:56.273Z,1.7
2023-04-05T11:24:30.000Z,1.6
2023-04-05T11:25:46.663Z,1.4
2023-04-05T11:27:02.000Z,1.4
2023-04-05T11:28:01.045Z,1.7
2023-04-05T11:29:35.000Z,1.5
2023-04-05T11:30:33.431Z,1.4
2023-04-05T11:32:07.000Z,1.4
2023-04-05T11:33:23.000Z,1.5
2023-04-05T11:34:22.011Z,1.4
2023-04-05T11:35:38.204Z,1.5
2023-04-05T11:37:12.397Z,1.6
2023-04-05T11:38:10.590Z,1.5
2023-04-05T11:39:44.783Z,1.1
2023-04-05T11:40:42.976Z,1.5
2023-04-05T11:41:59.170Z,1.7
2023-04-05T11:43:15.363Z,1.6
2023-04-05T11:44:30.578Z,1.6
2023-04-05T11:46:04.772Z,1.4
2023-04-05T11:47:20.000Z,1.6
2023-04-05T11:48:19.158Z,1.3
2023-04-05T11:49:35.351Z,1.9
2023-04-05T11:51:09.538Z,1.6
2023-04-05T11:52:25.739Z,1.3
2023-04-05T11:53:41.926Z,1.8
2023-04-05T11:54:58.000Z,1.4
2023-04-05T11:56:14.310Z,1.3
2023-04-05T11:57:55.000Z,1.5
2023-04-05T12:00:02.897Z,1.5
2023-04-05T12:01:01.090Z,1.7
2023-04-05T12:02:35.283Z,1.6
2023-04-05T12:03:51.478Z,1.6
2023-04-05T12:05:07.671Z,1.6
2023-04-05T12:06:04.878Z,1.3
2023-04-05T12:07:39.074Z,1.5
2023-04-05T12:08:37.266Z,1.2
2023-04-05T12:10:11.000Z,1.5
2023-04-05T12:11:27.000Z,1.2
2023-04-05T12:12:43.000Z,1.5
2023-04-05T12:13:42.039Z,1.4
2023-04-05T12:15:16.000Z,1.4
2023-04-05T12:16:14.427Z,1.6
2023-04-05T12:17:48.000Z,1.2
2023-04-05T12:18:46.813Z,1.3
2023-04-05T12:20:03.006Z,1.5
2023-04-05T12:21:19.200Z,1.6
2023-04-05T12:22:53.000Z,1.7
2023-04-05T12:24:09.000Z,1.6
2023-04-05T12:25:25.769Z,1.4
2023-04-05T12:26:22.990Z,1.5
2023-04-05T12:27:57.185Z,1.5
2023-04-05T12:29:13.000Z,1.4
2023-04-05T12:30:29.570Z,1.4
2023-04-05T12:31:45.000Z,1.4
2023-04-05T12:33:01.000Z,1.2
2023-04-05T12:34:00.150Z,1.2
2023-04-05T12:35:34.340Z,1.4
2023-04-05T12:36:50.000Z,1.6
2023-04-05T12:38:06.735Z,1.5
2023-04-05T12:39:22.917Z,1.6
2023-04-05T12:40:39.104Z,1.4
2023-04-05T12:41:55.302Z,1.2
2023-04-05T12:43:10.000Z,1.4
2023-04-05T12:44:26.713Z,1.6
2023-04-05T12:45:42.000Z,1.3
2023-04-05T12:46:59.094Z,1.2
2023-04-05T12:48:15.293Z,1.5
2023-04-05T12:49:31.000Z,1.2
2023-04-05T12:50:47.000Z,1.2
2023-04-05T12:51:45.873Z,1.3
2023-04-05T12:53:20.000Z,1.2
2023-04-05T12:54:36.254Z,1
2023-04-05T12:55:52.000Z,1.4
2023-04-05T12:56:50.646Z,1.4
2023-04-05T12:58:06.840Z,1.2
2023-04-05T12:59:41.000Z,1.3
2023-04-05T13:00:57.000Z,1.5
2023-04-05T13:02:12.433Z,1.2
2023-04-05T13:03:28.628Z,1.1
2023-04-05T13:04:26.821Z,1.5
2023-04-05T13:06:01.014Z,1.3
2023-04-05T13:06:59.208Z,1.3
2023-04-05T13:08:15.401Z,1.5
2023-04-05T13:09:31.595Z,1.6
2023-04-05T13:11:05.788Z,1.5
2023-04-05T13:12:21.970Z,1.3
2023-04-05T13:13:38.000Z,1.3
2023-04-05T13:14:54.000Z,1.3
2023-04-05T13:16:35.000Z,1.2
2023-04-05T13:17:08.754Z,1.3
2023-04-05T13:18:42.000Z,1.3
2023-04-05T13:19:41.140Z,1.4
2023-04-05T13:21:15.333Z,1.2
2023-04-05T13:22:13.526Z,1.2
2023-04-05T13:23:47.000Z,1.3
2023-04-05T13:24:45.912Z,1.2
2023-04-05T13:26:20.000Z,1.5
2023-04-05T13:27:36.000Z,1.1
2023-04-05T13:28:52.000Z,1.3
2023-04-05T13:30:08.671Z,1.4
2023-04-05T13:31:24.863Z,1.2
2023-04-05T13:32:41.000Z,1.4
2023-04-05T13:33:57.000Z,1.3
2023-04-05T13:35:13.455Z,1.4
2023-04-05T13:36:29.000Z,1.6
2023-04-05T13:37:27.841Z,1.5
2023-04-05T13:38:43.051Z,1.4
2023-04-05T13:40:17.000Z,1.6
2023-04-05T13:41:33.437Z,1.2
2023-04-05T13:42:49.620Z,1.4
2023-04-05T13:44:05.820Z,1.3
2023-04-05T13:45:04.017Z,1.3
2023-04-05T13:46:38.200Z,1.4
2023-04-05T13:47:54.401Z,1.3
2023-04-05T13:49:10.596Z,1.2
2023-04-05T13:50:26.781Z,1.1
2023-04-05T13:51:42.981Z,1.2
2023-04-05T13:52:59.000Z,1.3
2023-04-05T13:53:57.369Z,1.5
2023-04-05T13:55:13.563Z,1.3
2023-04-05T13:56:47.745Z,1.3
2023-04-05T13:57:44.964Z,1.3
2023-04-05T13:59:19.000Z,1.6
2023-04-05T14:00:17.350Z,1.5
2023-04-05T14:01:51.000Z,1.2
2023-04-05T14:02:49.736Z,1.2
2023-04-05T14:04:23.000Z,1.6
2023-04-05T14:05:40.000Z,1.2
2023-04-05T14:06:56.000Z,1.2
2023-04-05T14:08:12.500Z,1.6
2023-04-05T14:09:10.702Z,1.2
2023-04-05T14:10:26.895Z,1.3
2023-04-05T14:12:01.000Z,1.2
2023-04-05T14:13:17.270Z,1.4
2023-04-05T14:14:57.000Z,1.4
2023-04-05T14:15:48.677Z,1.5
2023-04-05T14:17:29.000Z,1.2
2023-04-05T14:18:21.000Z,1.4
2023-04-05T14:19:37.000Z,1.1
2023-04-05T14:20:53.000Z,1.4
2023-04-05T14:22:09.636Z,1.5
2023-04-05T14:23:07.840Z,1.4
2023-04-05T14:24:42.000Z,1.2
2023-04-05T14:25:58.227Z,1.2
2023-04-05T14:27:14.000Z,1.4
2023-04-05T14:28:12.613Z,1.4
2023-04-05T14:29:46.799Z,1.2
2023-04-05T14:31:02.015Z,1.5
2023-04-05T14:32:00.208Z,1.4
2023-04-05T14:33:16.401Z,1.3
2023-04-05T14:34:50.594Z,1.6
2023-04-05T14:35:48.787Z,1.3
2023-04-05T14:37:22.000Z,1.7
2023-04-05T14:38:21.173Z,1.3
2023-04-05T14:39:55.000Z,1
2023-04-05T14:40:53.559Z,1.2
2023-04-05T14:42:27.752Z,1.3
2023-04-05T14:43:43.000Z,1.4
2023-04-05T14:45:00.138Z,1.3
2023-04-05T14:45:58.332Z,1.3
2023-04-05T14:47:13.541Z,1.4
2023-04-05T14:48:29.734Z,1.4
2023-04-05T14:50:03.000Z,1.3
2023-04-05T14:51:20.000Z,1.4
2023-04-05T14:52:36.303Z,1.2
2023-04-05T14:53:34.506Z,1.4
2023-04-05T14:55:08.000Z,1.6
2023-04-05T14:56:24.000Z,1
2023-04-05T14:57:41.000Z,1.5
2023-04-05T14:58:57.000Z,1.5
2023-04-05T15:00:13.472Z,1.4
2023-04-05T15:01:11.665Z,1
2023-04-05T15:02:45.000Z,1.3
2023-04-05T15:04:02.051Z,1.3
2023-04-05T15:05:18.234Z,1.1
2023-04-05T15:06:33.441Z,1.4
2023-04-05T15:07:49.000Z,1.5
2023-04-05T15:09:05.839Z,1.4
2023-04-05T15:10:22.000Z,1.3
2023-04-05T15:11:20.225Z,1.3
2023-04-05T15:12:54.000Z,1.5
2023-04-05T15:14:10.607Z,1.4
2023-04-05T15:15:26.803Z,1.2
2023-04-05T15:16:42.986Z,1.3
2023-04-05T15:17:41.190Z,1.2
2023-04-05T15:19:15.000Z,1.3
2023-04-05T15:20:31.000Z,1.4
2023-04-05T15:21:47.769Z,1.1
2023-04-05T15:22:45.962Z,1.1
2023-04-05T15:24:01.171Z,1.2
2023-04-05T15:25:35.000Z,1.2
2023-04-05T15:26:33.557Z,1.5
2023-04-05T15:28:07.000Z,1.3
2023-04-05T15:29:23.948Z,1.2
2023-04-05T15:30:40.130Z,1.1
2023-04-05T15:31:56.000Z,1.3
2023-04-05T15:33:12.000Z,1.1
2023-04-05T15:34:28.000Z,1.1
2023-04-05T15:35:44.000Z,1.3
2023-04-05T15:36:43.102Z,1.2
2023-04-05T15:38:17.000Z,1.4
2023-04-05T15:39:33.492Z,1.2
2023-04-05T15:40:30.698Z,1.3
2023-04-05T15:41:46.892Z,1.3
2023-04-05T15:43:21.000Z,1.3
2023-04-05T15:44:19.278Z,1.4
2023-04-05T15:45:53.000Z,1.1
2023-04-05T15:47:09.000Z,1.5
2023-04-05T15:48:25.000Z,1.4
2023-04-05T15:49:24.052Z,1.1
2023-04-05T15:50:58.000Z,1.6
2023-04-05T15:51:56.438Z,1.2
2023-04-05T15:53:30.631Z,1.4
2023-04-05T15:54:46.822Z,1.2
2023-04-05T15:55:45.018Z,1.2
2023-04-05T15:57:01.211Z,1.3
2023-04-05T15:58:34.000Z,1.2
2023-04-05T15:59:50.000Z,1.3
2023-04-05T16:01:06.805Z,1.3
2023-04-05T16:02:04.999Z,1.2
2023-04-05T16:03:21.193Z,1.4
2023-04-05T16:04:37.386Z,1.3
2023-04-05T16:06:11.000Z,1.5
2023-04-05T16:07:27.775Z,1.3
2023-04-05T16:08:42.989Z,1.2
2023-04-05T16:09:41.184Z,1.3
2023-04-05T16:11:15.369Z,1.4
2023-04-05T16:12:31.000Z,1.3
2023-04-05T16:13:47.000Z,1.3
2023-04-05T16:15:03.962Z,1.2
2023-04-05T16:16:20.000Z,1.4
2023-04-05T16:17:36.346Z,1.2
2023-04-05T16:18:52.543Z,1.3
2023-04-05T16:19:50.742Z,1.2
2023-04-05T16:21:24.000Z,1.2
2023-04-05T16:22:41.120Z,1.3
2023-04-05T16:23:57.000Z,1.3
2023-04-05T16:25:13.000Z,1.2
2023-04-05T16:26:29.000Z,1.3
2023-04-05T16:27:45.904Z,1
2023-04-05T16:29:01.000Z,1.5
2023-04-05T16:29:59.315Z,1
2023-04-05T16:31:33.510Z,1.1
2023-04-05T16:32:49.691Z,1.4
2023-04-05T16:34:05.000Z,1.3
2023-04-05T16:35:04.094Z,1
2023-04-05T16:36:38.000Z,1.1
2023-04-05T16:37:54.000Z,1.2
2023-04-05T16:39:10.676Z,1
2023-04-05T16:40:08.873Z,1.1
2023-04-05T16:41:43.056Z,1
2023-04-05T16:42:41.262Z,1.2
2023-04-05T16:44:15.000Z,1.2
2023-04-05T16:45:31.000Z,1.2
2023-04-05T16:46:47.869Z,1.2
2023-04-05T16:47:46.041Z,0.9
2023-04-05T16:49:01.252Z,1.1
2023-04-05T16:50:35.000Z,1.3
2023-04-05T16:51:51.000Z,1.1
2023-04-05T16:52:49.834Z,1
2023-04-05T16:54:24.020Z,1.3
2023-04-05T16:55:40.213Z,1
2023-04-05T16:56:38.419Z,1.1
2023-04-05T16:58:12.604Z,1.2
2023-04-05T16:59:28.000Z,1.2
2023-04-05T17:00:44.992Z,1.1
2023-04-05T17:02:01.197Z,1.2
2023-04-05T17:03:17.394Z,1.1
2023-04-05T17:04:33.000Z,1.3
2023-04-05T17:05:49.777Z,1.2
2023-04-05T17:07:04.996Z,1
2023-04-05T17:08:03.190Z,1.2
2023-04-05T17:09:37.375Z,1.1
2023-04-05T17:10:35.580Z,1.3
2023-04-05T17:12:09.782Z,1.3
2023-04-05T17:13:25.000Z,1.4
2023-04-05T17:14:42.000Z,1.2
2023-04-05T17:15:58.000Z,1.2
2023-04-05T17:17:39.000Z,1.2
2023-04-05T17:18:30.756Z,1.2
2023-04-05T17:19:46.000Z,1.2
2023-04-05T17:21:03.140Z,1.2
2023-04-05T17:22:19.333Z,1.4
2023-04-05T17:23:16.545Z,1.2
2023-04-05T17:24:50.737Z,1.4
2023-04-05T17:26:06.000Z,1.1
2023-04-05T17:27:23.121Z,0.9
2023-04-05T17:28:39.000Z,1
2023-04-05T17:29:55.000Z,1.1
2023-04-05T17:31:11.716Z,1
2023-04-05T17:32:27.907Z,1
2023-04-05T17:33:44.098Z,1
2023-04-05T17:35:00.000Z,1.1
2023-04-05T17:35:58.498Z,0.9